createdAt,value
2022-12-18T00:00:08.108Z,90.63
2022-12-18T00:02:35.745Z,88.05
2022-12-18T00:05:03.972Z,92.93
2022-12-18T00:07:32.175Z,91.63
2022-12-18T00:09:59.781Z,104.25
2022-12-18T00:12:29.963Z,107.40
2022-12-18T00:14:58.375Z,104.07
2022-12-18T00:17:26.716Z,103.30
2022-12-18T00:19:54.707Z,94.90
2022-12-18T00:22:22.936Z,97.93
2022-12-18T00:24:50.907Z,93.25
2022-12-18T00:27:18.548Z,90.85
2022-12-18T00:29:46.817Z,100.72
2022-12-18T00:32:14.505Z,100.28
2022-12-18T00:34:42.057Z,98.60
2022-12-18T00:37:10.235Z,98.00
2022-12-18T00:39:38.000Z,99.80
2022-12-18T00:42:24.307Z,102.22
2022-12-18T00:44:51.902Z,100.72
2022-12-18T00:47:19.830Z,98.10
2022-12-18T00:49:47.327Z,106.65
2022-12-18T00:52:15.352Z,98.28
2022-12-18T00:54:42.877Z,101.43
2022-12-18T00:57:10.631Z,98.47
2022-12-18T00:59:38.465Z,104.95
2022-12-18T01:02:06.116Z,100.68
2022-12-18T01:04:34.651Z,102.53
2022-12-18T01:07:02.513Z,106.93
2022-12-18T01:09:30.079Z,96.50
2022-12-18T01:11:57.954Z,103.20
2022-12-18T01:14:25.709Z,96.85
2022-12-18T01:16:53.763Z,98.13
2022-12-18T01:19:21.754Z,95.22
2022-12-18T01:21:49.775Z,98.07
2022-12-18T01:24:17.422Z,98.57
2022-12-18T01:26:45.034Z,94.13
2022-12-18T01:29:12.644Z,91.45
2022-12-18T01:31:40.273Z,97.22
2022-12-18T01:34:08.190Z,95.38
2022-12-18T01:36:40.852Z,98.78
2022-12-18T01:39:13.723Z,95.07
2022-12-18T01:42:00.082Z,92.68
2022-12-18T01:44:58.666Z,98.70
2022-12-18T01:47:46.333Z,94.78
2022-12-18T01:50:22.783Z,90.57
2022-12-18T01:53:07.389Z,92.43
2022-12-18T01:58:08.796Z,91.22
2022-12-18T02:00:36.954Z,95.10
2022-12-18T02:03:05.190Z,90.15
2022-12-18T02:06:03.564Z,95.47
2022-12-18T02:08:45.786Z,88.28
2022-12-18T02:12:00.149Z,86.40
2022-12-18T02:14:57.884Z,87.57
2022-12-18T02:17:38.154Z,89.43
2022-12-18T02:20:41.476Z,81.70
2022-12-18T02:23:30.939Z,91.68
2022-12-18T02:26:20.665Z,84.03
2022-12-18T02:29:07.249Z,81.75
2022-12-18T02:31:42.271Z,81.97
2022-12-18T02:34:11.971Z,82.55
2022-12-18T02:36:43.997Z,83.93
2022-12-18T02:39:14.011Z,83.45
2022-12-18T02:41:42.607Z,82.93
2022-12-18T02:44:14.118Z,81.72
2022-12-18T02:46:50.594Z,87.85
2022-12-18T02:49:38.249Z,81.57
2022-12-18T02:52:17.512Z,75.85
2022-12-18T02:54:59.714Z,80.88
2022-12-18T02:57:42.045Z,85.05
2022-12-18T03:00:20.188Z,84.40
2022-12-18T03:03:03.088Z,84.10
2022-12-18T03:05:51.884Z,80.80
2022-12-18T03:08:30.505Z,83.90
2022-12-18T03:11:05.228Z,87.78
2022-12-18T03:13:41.407Z,94.95
2022-12-18T03:16:24.265Z,86.65
2022-12-18T03:19:00.248Z,94.72
2022-12-18T03:21:41.638Z,84.60
2022-12-18T03:24:11.033Z,84.97
2022-12-18T03:26:44.573Z,86.45
2022-12-18T03:29:22.143Z,85.47
2022-12-18T03:32:00.457Z,94.05
2022-12-18T03:34:35.070Z,79.03
2022-12-18T03:37:05.300Z,86.22
2022-12-18T03:39:33.242Z,81.45
2022-12-18T03:42:25.411Z,81.22
2022-12-18T03:45:37.941Z,84.90
2022-12-18T03:48:24.203Z,82.50
2022-12-18T03:50:59.073Z,81.95
2022-12-18T03:53:33.755Z,91.15
2022-12-18T03:56:04.078Z,91.38
2022-12-18T03:58:34.491Z,89.35
2022-12-18T04:01:07.541Z,83.15
2022-12-18T04:03:36.493Z,86.32
2022-12-18T04:06:05.198Z,76.47
2022-12-18T04:08:34.468Z,78.78
2022-12-18T04:11:02.802Z,80.57
2022-12-18T04:13:36.769Z,72.82
2022-12-18T04:18:32.592Z,77.05
2022-12-18T04:21:00.115Z,83.13
2022-12-18T04:23:27.621Z,77.97
2022-12-18T04:25:57.608Z,80.97
2022-12-18T04:28:28.002Z,80.38
2022-12-18T04:30:55.536Z,95.53
2022-12-18T04:33:23.094Z,79.82
2022-12-18T04:35:50.718Z,88.70
2022-12-18T04:38:18.515Z,81.22
2022-12-18T04:40:45.990Z,90.25
2022-12-18T04:43:13.505Z,89.53
2022-12-18T04:45:41.213Z,95.18
2022-12-18T04:48:08.852Z,96.07
2022-12-18T04:50:37.038Z,87.82
2022-12-18T04:53:04.571Z,81.20
2022-12-18T04:55:32.050Z,93.95
2022-12-18T04:57:59.450Z,80.78
2022-12-18T05:00:27.165Z,72.90
2022-12-18T05:02:55.301Z,77.07
2022-12-18T05:05:22.870Z,105.82
2022-12-18T05:07:50.329Z,84.53
2022-12-18T05:10:17.916Z,81.72
2022-12-18T05:13:01.212Z,83.30
2022-12-18T05:15:33.984Z,76.97
2022-12-18T05:18:02.422Z,85.88
2022-12-18T05:20:30.467Z,88.32
2022-12-18T05:22:58.494Z,83.40
2022-12-18T05:25:26.410Z,91.13
2022-12-18T05:27:53.948Z,85.68
2022-12-18T05:30:21.572Z,82.15
2022-12-18T05:32:48.930Z,80.60
2022-12-18T05:35:16.376Z,67.10
2022-12-18T05:37:43.773Z,74.78
2022-12-18T05:40:12.470Z,79.47
2022-12-18T05:42:40.083Z,76.75
2022-12-18T05:45:08.505Z,81.90
2022-12-18T05:47:36.020Z,82.70
2022-12-18T05:50:03.719Z,83.95
2022-12-18T05:52:32.423Z,85.18
2022-12-18T05:55:00.262Z,82.18
2022-12-18T05:57:27.699Z,92.15
2022-12-18T05:59:55.130Z,89.28
2022-12-18T06:02:22.729Z,85.22
2022-12-18T06:04:50.385Z,88.18
2022-12-18T06:07:17.848Z,82.40
2022-12-18T06:09:45.501Z,84.25
2022-12-18T06:12:13.028Z,80.93
2022-12-18T06:14:40.581Z,84.32
2022-12-18T06:17:08.266Z,84.93
2022-12-18T06:19:37.412Z,84.72
2022-12-18T06:22:05.033Z,83.88
2022-12-18T06:24:32.514Z,85.85
2022-12-18T06:26:59.929Z,93.68
2022-12-18T06:29:31.955Z,91.95
2022-12-18T06:31:59.441Z,94.13
2022-12-18T06:34:26.938Z,90.97
2022-12-18T06:36:54.554Z,95.20
2022-12-18T06:39:22.159Z,88.05
2022-12-18T06:41:49.589Z,86.03
2022-12-18T06:44:17.064Z,93.78
2022-12-18T06:46:44.549Z,84.07
2022-12-18T06:49:12.222Z,94.32
2022-12-18T06:51:40.228Z,101.68
2022-12-18T06:54:07.882Z,88.82
2022-12-18T06:56:35.508Z,87.07
2022-12-18T06:59:03.003Z,86.32
2022-12-18T07:01:31.064Z,87.88
2022-12-18T07:03:59.199Z,87.78
2022-12-18T07:06:28.155Z,121.82
2022-12-18T07:08:56.630Z,99.35
2022-12-18T07:11:24.322Z,83.65
2022-12-18T07:13:51.785Z,101.07
2022-12-18T07:16:25.590Z,108.15
2022-12-18T07:21:23.591Z,93.80
2022-12-18T07:23:51.747Z,85.47
2022-12-18T07:26:21.794Z,85.32
2022-12-18T07:28:49.777Z,86.20
2022-12-18T07:31:23.306Z,90.93
2022-12-18T07:33:55.053Z,88.22
2022-12-18T07:36:25.898Z,84.93
2022-12-18T07:38:54.079Z,87.78
2022-12-18T07:41:21.828Z,87.28
2022-12-18T07:43:49.929Z,91.80
2022-12-18T07:46:18.573Z,89.13
2022-12-18T07:48:49.375Z,95.97
2022-12-18T07:51:19.251Z,88.03
2022-12-18T07:53:51.331Z,89.70
2022-12-18T07:56:29.017Z,87.60
2022-12-18T07:58:58.026Z,83.40
2022-12-18T08:04:10.013Z,84.28
2022-12-18T08:06:37.461Z,92.40
2022-12-18T08:09:05.312Z,97.47
2022-12-18T08:11:35.503Z,102.63
2022-12-18T08:14:03.241Z,93.38
2022-12-18T08:16:31.544Z,91.45
2022-12-18T08:19:09.232Z,102.35
2022-12-18T08:21:37.753Z,109.15
2022-12-18T08:24:06.315Z,103.97
2022-12-18T08:26:36.423Z,92.88
2022-12-18T08:29:05.158Z,97.22
2022-12-18T08:31:32.900Z,95.30
2022-12-18T08:34:04.947Z,89.72
2022-12-18T08:36:35.733Z,94.13
2022-12-18T08:39:03.279Z,84.18
2022-12-18T08:41:30.988Z,90.68
2022-12-18T08:44:17.331Z,87.80
2022-12-18T08:46:46.602Z,85.90
2022-12-18T08:49:21.033Z,86.20
2022-12-18T08:54:19.611Z,92.95
2022-12-18T08:56:47.490Z,90.03
2022-12-18T08:59:19.393Z,85.60
2022-12-18T09:01:48.791Z,87.65
2022-12-18T09:04:20.142Z,85.45
2022-12-18T09:06:56.655Z,90.22
2022-12-18T09:09:29.745Z,96.25
2022-12-18T09:12:01.839Z,95.90
2022-12-18T09:14:40.089Z,85.63
2022-12-18T09:22:07.559Z,88.72
2022-12-18T09:24:48.070Z,89.05
2022-12-18T09:27:16.649Z,82.40
2022-12-18T09:29:52.080Z,84.72
2022-12-18T09:32:23.341Z,79.88
2022-12-18T09:34:59.477Z,73.80
2022-12-18T09:37:35.889Z,84.80
2022-12-18T09:40:05.215Z,79.07
2022-12-18T09:42:35.367Z,79.88
2022-12-18T09:45:17.339Z,82.43
2022-12-18T09:53:14.171Z,77.85
2022-12-18T09:55:46.868Z,82.35
2022-12-18T09:58:49.426Z,74.00
2022-12-18T10:20:44.450Z,62.50
2022-12-18T10:23:35.708Z,69.32
2022-12-18T10:26:13.785Z,69.38
2022-12-18T10:28:44.692Z,67.13
2022-12-18T10:31:26.196Z,76.50
2022-12-18T10:34:03.215Z,67.93
2022-12-18T10:39:59.916Z,68.35
2022-12-18T10:42:33.866Z,67.03
2022-12-18T10:45:20.384Z,70.00
2022-12-18T10:47:53.486Z,73.20
2022-12-18T10:51:09.269Z,65.82
2022-12-18T10:53:34.976Z,72.15
2022-12-18T10:56:08.846Z,74.85
2022-12-18T10:58:42.879Z,71.35
2022-12-18T11:01:21.249Z,69.50
2022-12-18T11:04:04.870Z,71.55
2022-12-18T11:06:35.191Z,72.75
2022-12-18T11:09:13.820Z,66.47
2022-12-18T11:11:42.591Z,70.65
2022-12-18T11:14:33.901Z,68.18
2022-12-18T11:19:59.458Z,71.18
2022-12-18T11:22:32.877Z,61.78
2022-12-18T11:25:35.894Z,64.28
2022-12-18T11:28:47.165Z,73.18
2022-12-18T11:31:33.531Z,71.18
2022-12-18T11:34:29.273Z,58.28
2022-12-18T11:37:01.785Z,66.68
2022-12-18T11:39:59.093Z,64.78
2022-12-18T11:43:03.817Z,62.13
2022-12-18T11:45:37.904Z,60.35
2022-12-18T11:48:28.698Z,59.85
2022-12-18T11:50:59.037Z,65.07
2022-12-18T11:53:30.405Z,62.80
2022-12-18T11:56:37.590Z,57.53
2022-12-18T11:59:52.958Z,65.47
2022-12-18T12:02:42.430Z,61.67
2022-12-18T12:05:42.885Z,62.47
2022-12-18T12:08:24.472Z,63.95
2022-12-18T12:13:46.195Z,63.10
2022-12-18T12:16:50.318Z,67.68
2022-12-18T12:22:13.082Z,66.82
2022-12-18T12:25:05.067Z,68.35
2022-12-18T12:28:11.934Z,69.43
2022-12-18T12:31:24.362Z,73.88
2022-12-18T12:34:29.437Z,67.30
2022-12-18T12:37:23.279Z,73.22
2022-12-18T12:39:54.633Z,75.90
2022-12-18T12:42:59.274Z,67.25
2022-12-18T12:46:07.577Z,69.88
2022-12-18T12:55:00.659Z,65.32
2022-12-18T12:57:48.228Z,73.68
2022-12-18T13:00:27.172Z,64.93
2022-12-18T13:03:35.548Z,68.75
2022-12-18T13:06:21.726Z,70.25
2022-12-18T13:09:07.098Z,74.45
2022-12-18T13:20:19.576Z,70.68
2022-12-18T13:22:55.696Z,70.65
2022-12-18T13:36:43.795Z,70.13
2022-12-18T13:39:23.312Z,72.82
2022-12-18T13:42:39.230Z,71.45
2022-12-18T13:53:53.684Z,69.55
2022-12-18T14:01:48.658Z,75.88
2022-12-18T14:16:08.268Z,111.70
2022-12-18T14:18:54.353Z,88.30
2022-12-18T14:21:28.644Z,75.38
2022-12-18T14:24:19.453Z,87.32
2022-12-18T14:26:50.843Z,80.05
2022-12-18T14:29:31.612Z,65.53
2022-12-18T14:32:16.843Z,61.47
2022-12-18T14:40:16.470Z,96.20
2022-12-18T14:45:41.575Z,75.53
2022-12-18T14:48:14.256Z,65.45
2022-12-18T14:50:44.831Z,68.87
2022-12-18T14:53:54.805Z,64.20
2022-12-18T14:56:37.280Z,97.93
2022-12-18T14:59:23.788Z,84.60
2022-12-18T15:02:30.761Z,79.57
2022-12-18T15:05:21.901Z,83.35
2022-12-18T15:07:54.349Z,80.95
2022-12-18T15:10:31.854Z,79.30
2022-12-18T15:13:01.062Z,113.20
2022-12-18T15:15:37.412Z,92.03
2022-12-18T15:18:13.533Z,97.93
2022-12-18T15:20:54.137Z,92.38
2022-12-18T15:23:56.255Z,92.90
2022-12-18T15:26:24.704Z,88.07
2022-12-18T15:28:59.262Z,79.70
2022-12-18T15:31:36.180Z,72.50
2022-12-18T15:34:24.995Z,72.63
2022-12-18T15:36:57.327Z,75.15
2022-12-18T15:39:25.118Z,76.35
2022-12-18T15:42:11.519Z,76.93
2022-12-18T15:44:39.603Z,81.47
2022-12-18T15:47:13.728Z,76.97
2022-12-18T15:49:41.519Z,77.90
2022-12-18T15:52:14.128Z,73.38
2022-12-18T15:55:00.115Z,83.32
2022-12-18T15:57:28.487Z,77.75
2022-12-18T15:59:59.656Z,77.68
2022-12-18T16:02:29.325Z,91.32
2022-12-18T16:04:59.144Z,92.28
2022-12-18T16:07:30.891Z,98.93
2022-12-18T16:09:59.426Z,83.30
2022-12-18T16:12:29.869Z,111.78
2022-12-18T16:17:45.014Z,103.75
2022-12-18T16:20:23.593Z,118.82
2022-12-18T16:22:56.029Z,109.40
2022-12-18T16:25:30.382Z,106.07
2022-12-18T16:27:58.744Z,117.45
2022-12-18T16:30:37.937Z,127.57
2022-12-18T16:33:07.682Z,155.63
2022-12-18T16:35:38.237Z,134.57
2022-12-18T16:38:06.867Z,132.25
2022-12-18T16:40:54.834Z,127.80
2022-12-18T16:43:22.407Z,120.85
2022-12-18T16:45:52.304Z,136.52
2022-12-18T16:48:19.809Z,133.57
2022-12-18T16:50:47.737Z,133.07
2022-12-18T16:53:15.265Z,126.03
2022-12-18T16:55:44.005Z,120.72
2022-12-18T16:58:12.154Z,143.57
2022-12-18T17:00:41.617Z,121.20
2022-12-18T17:03:09.263Z,129.05
2022-12-18T17:05:37.051Z,126.50
2022-12-18T17:08:05.687Z,127.07
2022-12-18T17:10:36.056Z,125.82
2022-12-18T17:13:04.406Z,120.07
2022-12-18T17:15:36.577Z,120.20
2022-12-18T17:18:04.812Z,151.45
2022-12-18T17:20:32.622Z,149.10
2022-12-18T17:23:00.291Z,140.10
2022-12-18T17:25:29.213Z,130.00
2022-12-18T17:27:56.801Z,129.52
2022-12-18T17:30:29.991Z,115.90
2022-12-18T17:32:57.694Z,118.45
2022-12-18T17:35:28.123Z,116.97
2022-12-18T17:37:55.839Z,117.47
2022-12-18T17:40:23.511Z,114.90
2022-12-18T17:42:55.577Z,103.93
2022-12-18T17:45:24.416Z,117.20
2022-12-18T17:47:56.778Z,115.32
2022-12-18T17:50:29.171Z,116.50
2022-12-18T17:52:58.807Z,113.28
2022-12-18T17:55:31.527Z,118.18
2022-12-18T17:57:59.547Z,116.20
2022-12-18T18:00:28.229Z,116.35
2022-12-18T18:02:56.584Z,114.03
2022-12-18T18:05:24.199Z,113.22
2022-12-18T18:07:54.469Z,120.45
2022-12-18T18:10:26.077Z,124.25
2022-12-18T18:13:12.283Z,114.88
2022-12-18T18:15:42.748Z,113.75
2022-12-18T18:18:11.375Z,108.85
2022-12-18T18:20:42.587Z,107.93
2022-12-18T18:23:10.171Z,100.28
2022-12-18T18:25:40.514Z,115.25
2022-12-18T18:28:09.396Z,105.18
2022-12-18T18:30:42.856Z,111.10
2022-12-18T18:33:14.440Z,144.77
2022-12-18T18:35:55.271Z,145.50
2022-12-18T18:38:23.957Z,164.35
2022-12-18T18:41:03.817Z,184.27
2022-12-18T18:43:40.244Z,112.80
2022-12-18T18:46:14.791Z,108.50
2022-12-18T18:48:44.118Z,104.60
2022-12-18T18:51:16.530Z,110.55
2022-12-18T18:53:51.423Z,106.97
2022-12-18T18:59:13.859Z,149.82
2022-12-18T19:01:41.464Z,137.38
2022-12-18T19:04:09.136Z,134.95
2022-12-18T19:06:39.912Z,142.20
2022-12-18T19:09:11.579Z,126.32
2022-12-18T19:11:58.566Z,130.30
2022-12-18T19:14:26.315Z,133.07
2022-12-18T19:16:54.919Z,139.27
2022-12-18T19:19:25.509Z,149.57
2022-12-18T19:21:57.544Z,135.30
2022-12-18T19:24:29.299Z,129.25
2022-12-18T19:26:57.934Z,124.22
2022-12-18T19:29:26.943Z,105.93
2022-12-18T19:31:55.367Z,130.38
2022-12-18T19:34:26.220Z,103.00
2022-12-18T19:36:59.443Z,118.05
2022-12-18T19:39:28.752Z,120.22
2022-12-18T19:42:01.053Z,116.00
2022-12-18T19:44:31.603Z,118.38
2022-12-18T19:47:01.744Z,125.85
2022-12-18T19:49:31.522Z,130.90
2022-12-18T19:52:04.706Z,131.73
2022-12-18T19:54:32.921Z,120.47
2022-12-18T19:57:07.851Z,118.18
2022-12-18T19:59:41.140Z,124.88
2022-12-18T20:02:15.031Z,122.53
2022-12-18T20:04:42.772Z,123.67
2022-12-18T20:07:16.167Z,122.03
2022-12-18T20:09:57.123Z,117.53
2022-12-18T20:12:32.171Z,106.18
2022-12-18T20:15:00.476Z,114.38
2022-12-18T20:17:32.177Z,110.05
2022-12-18T20:20:02.967Z,106.57
2022-12-18T20:22:31.609Z,116.88
2022-12-18T20:25:00.177Z,120.82
2022-12-18T20:27:31.504Z,144.75
2022-12-18T20:30:01.579Z,132.98
2022-12-18T20:32:36.946Z,124.82
2022-12-18T20:35:06.732Z,114.20
2022-12-18T20:37:35.266Z,119.57
2022-12-18T20:40:07.700Z,106.40
2022-12-18T20:42:38.795Z,112.10
2022-12-18T20:45:07.340Z,116.80
2022-12-18T20:47:35.202Z,117.45
2022-12-18T20:50:03.643Z,124.57
2022-12-18T20:52:34.148Z,130.10
2022-12-18T20:55:04.913Z,305.35
2022-12-18T20:57:40.366Z,206.90
2022-12-18T21:00:11.397Z,150.85
2022-12-18T21:02:49.631Z,117.00
2022-12-18T21:05:17.396Z,134.20
2022-12-18T21:07:47.806Z,116.13
2022-12-18T21:10:18.650Z,107.57
2022-12-18T21:12:58.796Z,110.43
2022-12-18T21:15:30.979Z,92.43
2022-12-18T21:17:58.914Z,105.05
2022-12-18T21:20:26.698Z,102.53
2022-12-18T21:23:06.539Z,107.40
2022-12-18T21:25:49.823Z,122.25
2022-12-18T21:28:25.149Z,116.07
2022-12-18T21:30:56.590Z,115.63
2022-12-18T21:33:25.670Z,115.50
2022-12-18T21:35:54.383Z,106.97
2022-12-18T21:38:23.622Z,94.55
2022-12-18T21:40:56.756Z,91.10
2022-12-18T21:43:44.278Z,98.97
2022-12-18T21:46:16.300Z,93.07
2022-12-18T21:48:48.140Z,103.50
2022-12-18T21:51:15.575Z,99.10
2022-12-18T21:53:43.757Z,91.07
2022-12-18T21:56:14.151Z,90.43
2022-12-18T21:58:56.712Z,93.22
2022-12-18T22:01:36.534Z,102.50
2022-12-18T22:04:13.162Z,98.50
2022-12-18T22:06:42.853Z,95.60
2022-12-18T22:09:23.353Z,92.68
2022-12-18T22:11:52.490Z,96.22
2022-12-18T22:14:21.932Z,91.78
2022-12-18T22:16:51.051Z,89.30
2022-12-18T22:19:20.457Z,91.35
2022-12-18T22:21:50.061Z,90.80
2022-12-18T22:24:24.141Z,83.20
2022-12-18T22:26:57.296Z,80.25
2022-12-18T22:29:48.074Z,83.45
2022-12-18T22:32:21.440Z,78.78
2022-12-18T22:35:08.302Z,80.63
2022-12-18T22:37:38.244Z,77.70
2022-12-18T22:40:07.847Z,91.10
2022-12-18T22:42:36.344Z,79.68
2022-12-18T22:45:04.424Z,80.78
2022-12-18T22:47:32.003Z,86.63
2022-12-18T22:50:02.766Z,81.50
2022-12-18T22:52:30.458Z,80.97
2022-12-18T22:54:58.727Z,89.05
2022-12-18T22:57:26.423Z,89.47
2022-12-18T22:59:54.110Z,83.70
2022-12-18T23:02:22.237Z,79.80
2022-12-18T23:04:50.338Z,81.20
2022-12-18T23:07:18.190Z,79.85
2022-12-18T23:09:46.098Z,86.70
2022-12-18T23:12:19.264Z,84.53
2022-12-18T23:14:47.520Z,104.90
2022-12-18T23:17:15.051Z,101.63
2022-12-18T23:19:48.573Z,106.93
2022-12-18T23:22:17.363Z,84.55
2022-12-18T23:24:46.977Z,85.50
2022-12-18T23:27:14.784Z,83.00
2022-12-18T23:29:42.517Z,85.95
2022-12-18T23:32:11.442Z,83.82
2022-12-18T23:34:39.561Z,86.93
2022-12-18T23:37:07.205Z,81.38
2022-12-18T23:39:34.750Z,77.68
2022-12-18T23:42:02.340Z,78.20
2022-12-18T23:44:30.390Z,83.40
2022-12-18T23:46:58.966Z,86.25
2022-12-18T23:49:26.797Z,78.63
2022-12-18T23:51:55.549Z,83.32
2022-12-18T23:54:31.401Z,83.22
2022-12-18T23:57:02.003Z,80.22
2022-12-18T23:59:30.113Z,85.68
